Time;durP1;ratioP1;P1;durP2;ratioP2;P2;SDS_P1;SDS_P2;PMS_P1;PMS_P2;Temp;Humidity;BMP_temperature;BMP_pressure;BME280_temperature;BME280_humidity;BME280_pressure;Samples;Min_cycle;Max_cycle;Signal;HPM_P1;HPM_P2
2022/05/25 00:02:24;;;;;;;7.97;0.90;;;12.10;99.90;;;;;;4990970;28;20175;-58
2022/05/25 00:04:52;;;;;;;9.40;1.23;;;12.10;99.90;;;;;;4994114;28;20176;-58
2022/05/25 00:07:20;;;;;;;7.17;1.10;;;12.20;99.90;;;;;;4994297;28;20175;-58
2022/05/25 00:09:46;;;;;;;7.07;0.90;;;12.20;99.90;;;;;;4994196;28;20246;-58
2022/05/25 00:12:15;;;;;;;7.17;1.20;;;12.20;99.90;;;;;;4994219;28;20222;-58
2022/05/25 00:14:41;;;;;;;14.00;0.93;;;12.20;99.90;;;;;;4994112;28;20693;-58
2022/05/25 00:17:07;;;;;;;12.87;1.10;;;12.30;99.90;;;;;;4994016;28;20254;-58
2022/05/25 00:22:18;;;;;;;7.10;0.80;;;12.30;99.90;;;;;;4994440;28;20193;-58
2022/05/25 00:24:43;;;;;;;8.23;1.40;;;12.30;99.90;;;;;;4994223;28;20279;-59
2022/05/25 00:27:09;;;;;;;6.77;0.97;;;12.40;99.90;;;;;;4994187;28;20190;-58
2022/05/25 00:29:36;;;;;;;12.83;1.27;;;12.40;99.90;;;;;;4994141;28;20182;-59
2022/05/25 00:32:06;;;;;;;6.63;1.30;;;12.40;99.90;;;;;;4994156;28;20179;-59
2022/05/25 00:34:32;;;;;;;13.37;1.23;;;12.40;99.90;;;;;;4994031;28;20210;-59
2022/05/25 00:36:58;;;;;;;6.33;1.00;;;12.40;99.90;;;;;;4994188;28;20277;-59
2022/05/25 00:39:24;;;;;;;3.83;0.93;;;12.40;99.90;;;;;;4993835;28;20686;-58
2022/05/25 00:41:50;;;;;;;4.27;0.77;;;12.50;99.90;;;;;;4993753;28;20171;-59
2022/05/25 00:44:17;;;;;;;11.53;1.60;;;12.40;99.90;;;;;;4993928;28;20183;-58
2022/05/25 00:46:43;;;;;;;7.20;0.80;;;12.50;99.90;;;;;;4993745;28;20187;-59
2022/05/25 00:49:26;;;;;;;12.77;1.33;;;12.40;99.90;;;;;;4993472;28;20677;-59
2022/05/25 00:51:56;;;;;;;13.57;1.10;;;12.40;99.90;;;;;;4993918;28;20187;-58
2022/05/25 00:54:29;;;;;;;9.37;1.03;;;12.40;99.90;;;;;;4993641;28;20219;-58
2022/05/25 00:56:58;;;;;;;9.57;1.43;;;12.40;99.90;;;;;;4993592;28;20253;-59
2022/05/25 00:59:29;;;;;;;7.47;1.20;;;12.40;99.90;;;;;;4993538;28;20314;-58
2022/05/25 01:01:56;;;;;;;7.57;0.90;;;12.40;99.90;;;;;;4993529;28;20179;-59
2022/05/25 01:04:22;;;;;;;9.53;0.93;;;12.40;99.90;;;;;;4993237;28;20257;-59
2022/05/25 01:07:10;;;;;;;12.30;1.47;;;12.40;99.90;;;;;;4993331;28;20171;-58
2022/05/25 01:10:01;;;;;;;10.57;1.40;;;12.30;99.90;;;;;;4993411;28;20182;-59
2022/05/25 01:12:45;;;;;;;10.30;1.30;;;12.20;99.90;;;;;;4993256;28;20171;-58
2022/05/25 01:15:29;;;;;;;13.20;1.20;;;12.20;99.90;;;;;;4993071;28;20563;-59
2022/05/25 01:18:25;;;;;;;5.80;1.03;;;12.70;99.90;;;;;;4993267;28;20182;-59
2022/05/25 01:21:19;;;;;;;10.33;1.10;;;12.20;99.90;;;;;;4993018;28;20223;-58
2022/05/25 01:24:10;;;;;;;9.30;1.20;;;12.20;99.90;;;;;;4985015;28;20194;-58
2022/05/25 01:27:02;;;;;;;5.97;1.20;;;12.20;99.90;;;;;;4992693;28;20179;-58
2022/05/25 01:29:55;;;;;;;8.03;1.03;;;12.20;99.90;;;;;;4992943;28;20167;-58
2022/05/25 01:32:31;;;;;;;11.70;1.40;;;12.20;99.90;;;;;;4992997;28;20175;-58
2022/05/25 01:35:28;;;;;;;7.80;1.13;;;12.20;99.90;;;;;;4992891;28;20766;-58
2022/05/25 01:37:59;;;;;;;11.13;1.10;;;12.20;99.90;;;;;;4992756;28;20218;-59
2022/05/25 01:40:25;;;;;;;11.23;1.20;;;12.20;99.90;;;;;;4992842;28;20241;-59
2022/05/25 01:42:56;;;;;;;8.23;1.30;;;12.20;99.90;;;;;;4992402;28;20654;-59
2022/05/25 01:45:25;;;;;;;7.60;1.37;;;12.20;99.90;;;;;;4992291;28;20175;-58
2022/05/25 01:47:53;;;;;;;10.43;1.27;;;12.20;99.90;;;;;;4992472;28;20164;-59
2022/05/25 01:50:41;;;;;;;7.10;1.20;;;12.20;99.90;;;;;;4992731;28;20282;-59
2022/05/25 01:53:09;;;;;;;11.37;1.20;;;12.20;99.90;;;;;;4982662;28;20305;-59
2022/05/25 01:55:43;;;;;;;9.23;1.60;;;12.10;99.90;;;;;;4992600;28;20188;-59
2022/05/25 01:58:11;;;;;;;9.03;1.17;;;12.10;99.90;;;;;;4992519;28;20168;-59
2022/05/25 02:00:47;;;;;;;9.73;1.20;;;12.00;99.90;;;;;;4992508;28;20703;-67
2022/05/25 02:06:31;;;;;;;9.00;1.23;;;12.10;99.90;;;;;;4992683;28;20170;-59
2022/05/25 02:09:32;;;;;;;10.40;1.60;;;12.10;99.90;;;;;;4992299;28;20178;-58
2022/05/25 02:12:29;;;;;;;9.07;1.20;;;12.00;99.90;;;;;;4992112;28;20537;-58
2022/05/25 02:15:03;;;;;;;10.47;1.40;;;12.00;99.90;;;;;;4991975;28;20215;-58
2022/05/25 02:17:29;;;;;;;9.13;1.20;;;11.90;99.90;;;;;;4991948;28;20175;-59
2022/05/25 02:20:05;;;;;;;7.53;1.23;;;11.90;99.90;;;;;;4991702;28;20349;-58
2022/05/25 02:22:35;;;;;;;14.03;1.40;;;11.90;99.90;;;;;;4991768;28;20171;-58
2022/05/25 02:25:08;;;;;;;5.47;1.20;;;11.80;99.90;;;;;;4991536;28;20172;-59
2022/05/25 02:27:46;;;;;;;18.57;1.63;;;11.80;99.90;;;;;;4991684;28;20167;-59
2022/05/25 02:30:17;;;;;;;8.80;1.10;;;11.80;99.90;;;;;;4991878;28;20163;-59
2022/05/25 02:32:53;;;;;;;6.03;1.60;;;11.80;99.90;;;;;;4991776;28;20229;-58
2022/05/25 02:35:22;;;;;;;9.97;1.23;;;11.70;99.90;;;;;;4992214;28;20183;-58
2022/05/25 02:37:50;;;;;;;10.33;1.13;;;11.70;99.90;;;;;;4991745;28;20183;-58
2022/05/25 02:40:17;;;;;;;4.90;1.53;;;11.70;99.90;;;;;;4991704;28;20168;-59
2022/05/25 02:42:43;;;;;;;13.63;2.03;;;11.70;99.90;;;;;;4991740;28;20630;-59
2022/05/25 02:45:11;;;;;;;11.20;1.70;;;11.70;99.90;;;;;;4991737;28;20175;-59
2022/05/25 02:47:37;;;;;;;8.50;1.30;;;11.60;99.90;;;;;;4991948;28;20408;-59
2022/05/25 02:50:04;;;;;;;14.77;1.67;;;11.60;99.90;;;;;;4991867;28;20175;-59
2022/05/25 02:52:30;;;;;;;11.90;1.63;;;11.60;99.90;;;;;;4991484;28;20649;-59
2022/05/25 02:54:56;;;;;;;10.03;1.13;;;11.60;99.90;;;;;;4991596;28;20222;-59
2022/05/25 02:57:21;;;;;;;8.20;1.07;;;11.60;99.90;;;;;;4991584;28;20175;-59
2022/05/25 02:59:48;;;;;;;6.13;1.30;;;11.50;99.90;;;;;;4991435;28;20183;-59
2022/05/25 03:02:14;;;;;;;10.60;1.27;;;11.60;99.90;;;;;;4990290;28;20649;-59
2022/05/25 03:04:40;;;;;;;12.83;1.50;;;11.70;99.90;;;;;;4991493;28;20171;-59
2022/05/25 03:07:07;;;;;;;15.87;1.67;;;11.60;99.90;;;;;;4991300;28;20235;-59
2022/05/25 03:09:37;;;;;;;8.23;1.13;;;11.70;99.90;;;;;;4991570;28;20653;-60
2022/05/25 03:12:07;;;;;;;9.30;1.40;;;11.40;99.90;;;;;;4991662;28;20183;-60
2022/05/25 03:14:34;;;;;;;9.93;1.73;;;11.70;99.90;;;;;;4991246;28;20225;-59
2022/05/25 03:17:09;;;;;;;7.83;1.37;;;11.60;99.90;;;;;;4990832;28;20242;-60
2022/05/25 03:19:36;;;;;;;11.57;1.63;;;11.60;99.90;;;;;;4990736;28;20178;-59
2022/05/25 03:22:02;;;;;;;5.73;1.10;;;11.50;99.90;;;;;;4991336;28;20228;-61
2022/05/25 03:24:28;;;;;;;8.90;1.27;;;11.50;99.90;;;;;;4990267;28;20186;-61
2022/05/25 03:26:54;;;;;;;7.97;1.10;;;11.50;99.90;;;;;;4990773;28;20544;-61
2022/05/25 03:29:20;;;;;;;8.90;1.30;;;11.50;99.90;;;;;;4990800;28;20638;-58
2022/05/25 03:31:46;;;;;;;7.50;1.37;;;11.50;99.90;;;;;;4991073;28;20171;-58
2022/05/25 03:34:12;;;;;;;7.73;1.30;;;11.40;99.90;;;;;;4990981;28;20211;-58
2022/05/25 03:36:37;;;;;;;9.13;1.40;;;11.50;99.90;;;;;;4991189;28;20271;-58
2022/05/25 03:39:03;;;;;;;7.10;1.37;;;11.40;99.90;;;;;;4993930;28;20179;-58
2022/05/25 03:41:29;;;;;;;9.13;1.37;;;11.40;99.90;;;;;;4994618;28;20179;-58
2022/05/25 03:43:54;;;;;;;10.30;1.97;;;11.40;99.90;;;;;;4994912;28;20635;-58
2022/05/25 03:46:20;;;;;;;10.90;1.27;;;11.30;99.90;;;;;;4994776;28;20190;-59
2022/05/25 03:48:46;;;;;;;8.07;1.30;;;11.30;99.90;;;;;;4994868;28;20211;-58
2022/05/25 03:51:12;;;;;;;15.23;1.63;;;11.30;99.90;;;;;;4994946;28;20241;-59
2022/05/25 03:53:38;;;;;;;8.47;1.83;;;11.30;99.90;;;;;;4994401;28;20257;-59
2022/05/25 03:56:05;;;;;;;7.63;1.07;;;11.30;99.90;;;;;;4994575;28;20172;-59
2022/05/25 03:58:31;;;;;;;5.30;1.10;;;11.30;99.90;;;;;;4994805;28;20209;-59
2022/05/25 04:00:56;;;;;;;13.80;2.00;;;11.30;99.90;;;;;;4994781;28;20207;-59
2022/05/25 04:03:22;;;;;;;11.90;1.57;;;11.30;99.90;;;;;;4994523;28;20665;-59
2022/05/25 04:05:48;;;;;;;9.63;1.50;;;12.30;99.90;;;;;;4994604;28;20176;-59
2022/05/25 04:08:14;;;;;;;13.57;2.10;;;11.40;99.90;;;;;;4994377;28;20245;-58
2022/05/25 04:10:40;;;;;;;10.90;1.20;;;11.40;99.90;;;;;;4994323;28;20194;-58
2022/05/25 04:13:06;;;;;;;12.43;1.67;;;11.40;99.90;;;;;;4994433;28;20233;-59
2022/05/25 04:15:33;;;;;;;7.67;2.40;;;11.40;99.90;;;;;;4994309;28;20206;-58
2022/05/25 04:17:59;;;;;;;15.73;1.20;;;11.40;99.90;;;;;;4994150;28;20167;-58
2022/05/25 04:20:26;;;;;;;11.70;1.47;;;11.50;99.90;;;;;;4994212;28;20250;-59
2022/05/25 04:22:52;;;;;;;11.10;1.73;;;11.20;99.90;;;;;;4994330;28;20176;-59
2022/05/25 04:25:21;;;;;;;8.80;1.57;;;11.50;99.90;;;;;;4994379;28;20198;-58
2022/05/25 04:27:49;;;;;;;7.60;1.50;;;11.50;99.90;;;;;;4994236;28;20167;-59
2022/05/25 04:30:18;;;;;;;11.30;1.40;;;11.60;99.90;;;;;;4994206;28;20171;-58
2022/05/25 04:32:44;;;;;;;9.07;1.63;;;11.60;99.90;;;;;;4994057;28;20649;-58
2022/05/25 04:35:12;;;;;;;12.43;1.60;;;11.70;99.90;;;;;;4994161;28;20223;-59
2022/05/25 04:37:50;;;;;;;9.73;0.90;;;11.60;99.90;;;;;;4993836;28;20167;-58
2022/05/25 04:40:27;;;;;;;5.80;1.10;;;11.70;99.90;;;;;;4993892;28;20219;-59
2022/05/25 04:42:55;;;;;;;10.77;1.53;;;11.70;99.90;;;;;;4993597;28;20230;-58
2022/05/25 04:45:22;;;;;;;10.70;1.33;;;11.70;99.90;;;;;;4993958;28;20183;-58
2022/05/25 04:47:48;;;;;;;13.60;1.37;;;11.80;99.90;;;;;;4993779;28;20630;-66
2022/05/25 04:50:17;;;;;;;15.93;1.70;;;11.80;99.90;;;;;;4993360;28;20186;-67
2022/05/25 04:52:42;;;;;;;10.20;1.47;;;11.80;99.90;;;;;;4993635;28;20171;-59
2022/05/25 04:55:10;;;;;;;12.37;1.60;;;11.80;99.90;;;;;;4993616;28;20215;-59
2022/05/25 04:57:35;;;;;;;14.17;1.67;;;11.70;99.90;;;;;;4993809;28;20214;-59
2022/05/25 05:00:05;;;;;;;9.70;1.20;;;11.70;99.90;;;;;;4993763;28;20207;-59
2022/05/25 05:02:31;;;;;;;11.33;1.70;;;11.70;99.90;;;;;;4993534;28;20337;-59
2022/05/25 05:04:57;;;;;;;13.17;1.60;;;11.60;99.90;;;;;;4993327;28;20217;-59
2022/05/25 05:07:31;;;;;;;11.90;1.77;;;11.60;99.90;;;;;;4993489;28;20222;-59
2022/05/25 05:10:01;;;;;;;7.87;1.10;;;11.60;99.90;;;;;;4993467;28;20170;-59
2022/05/25 05:12:29;;;;;;;8.57;1.73;;;11.70;99.90;;;;;;4993424;28;20203;-59
2022/05/25 05:14:57;;;;;;;11.40;1.27;;;11.70;99.90;;;;;;4993291;28;20207;-60
2022/05/25 05:17:23;;;;;;;10.67;1.43;;;11.70;99.90;;;;;;4993152;28;20163;-59
2022/05/25 05:19:49;;;;;;;10.47;1.37;;;11.70;99.90;;;;;;4992478;28;20215;-59
2022/05/25 05:22:15;;;;;;;10.20;1.50;;;11.80;99.90;;;;;;4992544;28;20309;-60
2022/05/25 05:24:41;;;;;;;11.67;1.47;;;11.80;99.90;;;;;;4992918;28;20886;-59
2022/05/25 05:27:08;;;;;;;10.50;1.77;;;11.80;99.90;;;;;;4993074;28;20237;-59
2022/05/25 05:29:34;;;;;;;9.20;1.40;;;11.90;99.90;;;;;;4992915;28;20656;-59
2022/05/25 05:32:00;;;;;;;16.83;1.77;;;11.90;99.90;;;;;;4993025;28;20199;-59
2022/05/25 05:34:28;;;;;;;14.90;1.60;;;12.00;99.90;;;;;;4992942;28;20309;-59
2022/05/25 05:37:12;;;;;;;10.00;1.40;;;12.00;99.90;;;;;;4993050;28;20176;-59
2022/05/25 05:39:41;;;;;;;7.97;1.23;;;12.20;99.90;;;;;;4992802;28;20180;-67
2022/05/25 05:42:14;;;;;;;10.33;1.47;;;12.10;99.90;;;;;;4992775;28;20179;-60
2022/05/25 05:44:49;;;;;;;9.63;1.63;;;12.10;99.90;;;;;;4992265;28;20178;-59
2022/05/25 05:47:19;;;;;;;10.30;1.47;;;12.10;99.90;;;;;;4992700;28;20174;-59
2022/05/25 05:49:45;;;;;;;12.13;1.50;;;12.20;99.90;;;;;;4992515;28;20182;-59
2022/05/25 05:52:11;;;;;;;11.33;1.70;;;12.20;99.90;;;;;;4992650;28;20646;-58
2022/05/25 05:54:38;;;;;;;16.33;2.47;;;12.20;99.90;;;;;;4992371;28;20273;-58
2022/05/25 05:57:05;;;;;;;14.60;1.70;;;12.20;99.90;;;;;;4992232;28;20206;-58
2022/05/25 05:59:31;;;;;;;8.10;1.40;;;12.20;99.90;;;;;;4992333;28;20710;-59
2022/05/25 06:01:57;;;;;;;11.17;1.60;;;12.30;99.90;;;;;;4991734;28;20202;-59
2022/05/25 06:04:22;;;;;;;9.50;1.60;;;12.30;99.90;;;;;;4991779;28;20178;-59
2022/05/25 06:06:49;;;;;;;8.80;1.63;;;12.30;99.90;;;;;;4992147;28;20226;-58
2022/05/25 06:09:16;;;;;;;3.13;0.90;;;12.30;99.90;;;;;;4992060;28;20649;-60
2022/05/25 06:11:42;;;;;;;7.53;1.53;;;12.30;99.90;;;;;;4992556;28;20257;-62
2022/05/25 06:14:09;;;;;;;8.33;1.50;;;12.30;99.90;;;;;;4991594;28;20265;-62
2022/05/25 06:19:26;;;;;;;11.33;1.97;;;12.30;99.90;;;;;;4992400;28;20197;-62
2022/05/25 06:22:02;;;;;;;18.90;1.90;;;12.30;99.90;;;;;;4992122;28;20254;-61
2022/05/25 06:24:29;;;;;;;12.93;1.57;;;12.30;99.90;;;;;;4991906;28;20403;-61
2022/05/25 06:26:55;;;;;;;11.93;1.47;;;12.40;99.90;;;;;;4992010;28;20638;-61
2022/05/25 06:29:21;;;;;;;7.40;1.30;;;12.40;99.90;;;;;;4991933;28;20186;-62
2022/05/25 06:31:48;;;;;;;8.70;1.67;;;12.40;99.90;;;;;;4991872;28;20250;-61
2022/05/25 06:34:14;;;;;;;6.70;1.40;;;12.40;99.90;;;;;;4991637;28;20735;-60
2022/05/25 06:36:41;;;;;;;8.10;1.27;;;12.40;99.90;;;;;;4991628;28;20172;-62
2022/05/25 06:39:08;;;;;;;10.03;1.50;;;12.50;99.90;;;;;;4991837;28;20175;-59
2022/05/25 06:41:33;;;;;;;12.33;1.67;;;12.60;99.90;;;;;;4991672;28;20210;-59
2022/05/25 06:44:00;;;;;;;7.53;1.27;;;12.50;99.90;;;;;;4991916;28;20656;-57
2022/05/25 06:46:26;;;;;;;6.73;1.40;;;12.60;99.90;;;;;;4989480;28;20182;-58
2022/05/25 06:48:55;;;;;;;10.07;1.60;;;12.60;99.90;;;;;;4991005;28;20179;-59
2022/05/25 06:51:32;;;;;;;15.10;2.00;;;12.60;99.90;;;;;;4991512;28;20565;-58
2022/05/25 06:53:58;;;;;;;6.77;1.43;;;12.60;99.90;;;;;;4991415;28;20207;-59
2022/05/25 06:56:24;;;;;;;13.23;1.90;;;12.60;99.90;;;;;;4991645;28;20178;-59
2022/05/25 06:58:52;;;;;;;8.87;1.67;;;12.60;99.90;;;;;;4991382;28;20203;-59
2022/05/25 07:01:18;;;;;;;7.30;1.30;;;12.60;99.90;;;;;;4991303;28;20183;-57
2022/05/25 07:03:44;;;;;;;8.63;1.47;;;12.60;99.90;;;;;;4990380;28;20186;-59
2022/05/25 07:06:12;;;;;;;9.30;1.40;;;12.60;99.90;;;;;;4990838;28;20618;-59
2022/05/25 07:08:37;;;;;;;8.07;1.30;;;12.60;99.90;;;;;;4991207;28;20512;-58
2022/05/25 07:11:04;;;;;;;10.87;1.73;;;12.60;99.90;;;;;;4991445;28;20217;-58
2022/05/25 07:13:30;;;;;;;10.10;1.80;;;12.60;99.90;;;;;;4995134;28;20249;-66
2022/05/25 07:16:01;;;;;;;5.93;0.93;;;12.60;99.90;;;;;;4995429;28;20621;-59
2022/05/25 07:18:28;;;;;;;7.33;1.17;;;12.60;99.90;;;;;;4995292;28;20179;-58
2022/05/25 07:21:02;;;;;;;7.10;1.30;;;12.60;99.90;;;;;;4995192;28;20214;-58
2022/05/25 07:23:28;;;;;;;5.00;1.30;;;12.60;99.90;;;;;;4995397;28;20217;-58
2022/05/25 07:25:54;;;;;;;10.20;1.30;;;12.60;99.90;;;;;;4995230;28;20650;-59
2022/05/25 07:28:20;;;;;;;13.20;1.63;;;12.70;99.90;;;;;;4994904;28;20650;-59
2022/05/25 07:30:49;;;;;;;7.23;1.30;;;12.70;99.90;;;;;;4995238;28;20233;-59
2022/05/25 07:33:14;;;;;;;6.63;1.10;;;12.80;99.90;;;;;;4995067;28;20703;-59
2022/05/25 07:35:40;;;;;;;7.60;1.30;;;12.80;99.90;;;;;;4995140;28;20183;-59
2022/05/25 07:38:06;;;;;;;9.37;1.40;;;12.90;99.90;;;;;;4995167;28;20183;-59
2022/05/25 07:40:36;;;;;;;12.20;1.40;;;13.00;99.90;;;;;;4995064;28;20258;-59
2022/05/25 07:43:09;;;;;;;10.10;1.17;;;12.90;99.90;;;;;;4994982;28;20206;-59
2022/05/25 07:45:35;;;;;;;11.97;1.30;;;12.80;99.90;;;;;;4994287;28;20179;-71
2022/05/25 07:48:01;;;;;;;7.73;1.07;;;13.00;99.90;;;;;;4994421;28;20202;-71
2022/05/25 07:50:28;;;;;;;7.60;1.20;;;12.90;99.90;;;;;;4994898;28;20674;-60
2022/05/25 07:52:57;;;;;;;8.50;1.20;;;13.00;99.90;;;;;;4994655;28;20646;-60
2022/05/25 07:55:22;;;;;;;13.53;1.70;;;13.00;99.90;;;;;;4994817;28;20290;-60
2022/05/25 07:57:48;;;;;;;6.07;1.37;;;13.00;99.90;;;;;;4994751;28;20254;-59
2022/05/25 08:00:16;;;;;;;3.87;0.80;;;13.10;99.90;;;;;;4994333;28;20171;-60
2022/05/25 08:05:43;;;;;;;2.70;0.80;;;13.10;99.90;;;;;;4994798;28;20656;-59
2022/05/25 08:08:14;;;;;;;10.30;0.90;;;13.00;99.90;;;;;;4994238;28;20206;-60
2022/05/25 08:10:42;;;;;;;6.53;0.90;;;12.80;99.90;;;;;;4994469;28;20848;-73
2022/05/25 08:13:08;;;;;;;6.57;0.90;;;12.80;99.90;;;;;;4994331;28;20225;-78
2022/05/25 08:15:34;;;;;;;4.47;1.10;;;12.70;99.90;;;;;;4994314;28;20186;-77
2022/05/25 08:18:00;;;;;;;4.83;0.83;;;12.70;99.90;;;;;;4994305;28;20314;-75
2022/05/25 08:20:28;;;;;;;5.43;1.10;;;12.60;99.90;;;;;;4994242;28;20229;-77
2022/05/25 08:22:53;;;;;;;6.73;0.93;;;12.60;99.90;;;;;;4993376;28;20647;-67
2022/05/25 08:25:20;;;;;;;6.57;1.30;;;12.60;99.90;;;;;;5002936;28;20177;-67
2022/05/25 08:27:45;;;;;;;4.17;1.00;;;12.90;99.90;;;;;;5000819;28;20202;-68
2022/05/25 08:30:16;;;;;;;9.03;1.27;;;12.70;99.90;;;;;;4993565;28;20562;-67
2022/05/25 08:32:42;;;;;;;4.00;1.10;;;12.80;99.90;;;;;;4993602;28;20234;-67
2022/05/25 08:35:07;;;;;;;4.77;0.97;;;12.80;99.90;;;;;;5007413;28;20206;-69
2022/05/25 08:37:33;;;;;;;4.47;1.13;;;12.80;99.90;;;;;;5013736;28;20178;-68
2022/05/25 08:39:59;;;;;;;7.83;1.30;;;12.90;99.90;;;;;;5013461;28;20262;-58
2022/05/25 08:42:29;;;;;;;8.03;1.40;;;13.10;99.90;;;;;;5013284;28;20175;-56
2022/05/25 08:44:56;;;;;;;2.30;0.80;;;13.20;99.90;;;;;;5013258;28;20170;-60
2022/05/25 08:47:22;;;;;;;2.13;0.70;;;13.30;99.90;;;;;;5013111;28;20181;-63
2022/05/25 08:49:51;;;;;;;5.43;0.90;;;13.30;99.90;;;;;;5009813;28;20182;-63
2022/05/25 08:52:30;;;;;;;6.50;0.77;;;13.40;99.90;;;;;;5001432;28;20198;-62
2022/05/25 08:54:58;;;;;;;2.90;0.90;;;13.40;99.90;;;;;;5002446;28;20237;-62
2022/05/25 08:57:30;;;;;;;6.13;0.70;;;13.60;99.90;;;;;;5001453;28;20175;-62
2022/05/25 09:00:09;;;;;;;4.17;0.80;;;13.50;99.90;;;;;;5004074;28;20212;-63
2022/05/25 09:02:35;;;;;;;4.93;0.60;;;13.80;99.90;;;;;;5013039;28;20197;-62
2022/05/25 09:05:34;;;;;;;3.85;0.77;;;13.80;99.90;;;;;;5012837;28;20262;-63
2022/05/25 09:08:23;;;;;;;1.30;0.65;;;13.90;99.90;;;;;;5009924;28;20178;-63
2022/05/25 09:11:03;;;;;;;1.30;0.45;;;13.90;99.90;;;;;;4993436;28;20175;-63
2022/05/25 09:13:41;;;;;;;4.28;0.60;;;13.70;99.90;;;;;;4993434;28;20206;-63
2022/05/25 09:16:16;;;;;;;1.10;0.45;;;13.60;99.90;;;;;;4993306;28;20190;-62
2022/05/25 09:19:10;;;;;;;2.20;0.67;;;13.40;99.90;;;;;;4993350;28;20168;-63
2022/05/25 09:21:54;;;;;;;2.83;0.60;;;13.40;99.90;;;;;;4992584;28;20223;-64
2022/05/25 09:24:24;;;;;;;1.17;0.60;;;13.50;99.90;;;;;;4992365;28;20168;-63
2022/05/25 09:26:51;;;;;;;2.10;1.13;;;13.50;99.90;;;;;;4992271;28;20234;-64
2022/05/25 09:29:17;;;;;;;1.53;0.90;;;13.40;99.90;;;;;;4992256;28;20177;-63
2022/05/25 09:31:49;;;;;;;1.40;1.00;;;13.50;99.90;;;;;;4993067;28;20218;-64
2022/05/25 09:34:32;;;;;;;4.33;1.00;;;13.60;99.90;;;;;;4992935;28;20219;-63
2022/05/25 09:37:10;;;;;;;3.60;1.57;;;13.70;99.90;;;;;;4992750;28;20170;-63
2022/05/25 09:39:42;;;;;;;3.50;0.85;;;13.60;99.90;;;;;;4992843;28;20199;-63
2022/05/25 09:42:17;;;;;;;2.60;1.13;;;13.50;99.90;;;;;;4992941;28;20661;-64
2022/05/25 09:44:48;;;;;;;0.63;0.50;;;13.40;99.90;;;;;;4992809;28;20179;-64
2022/05/25 09:47:24;;;;;;;1.60;0.60;;;13.40;99.90;;;;;;4992842;28;20331;-63
2022/05/25 09:49:54;;;;;;;1.95;0.50;;;13.40;99.90;;;;;;4992820;28;20186;-62
2022/05/25 09:52:27;;;;;;;1.13;0.47;;;12.70;99.90;;;;;;4992696;28;20187;-62
2022/05/25 09:55:03;;;;;;;6.90;0.50;;;13.40;99.90;;;;;;4992572;28;20214;-60
2022/05/25 09:57:34;;;;;;;0.93;0.47;;;13.40;99.90;;;;;;4992445;28;20171;-61
2022/05/25 10:00:18;;;;;;;0.57;0.30;;;13.50;99.90;;;;;;4992498;28;20183;-62
2022/05/25 10:02:46;;;;;;;2.83;0.77;;;13.50;99.90;;;;;;4992233;28;20171;-62
2022/05/25 10:05:23;;;;;;;2.20;0.63;;;13.50;99.90;;;;;;4992161;28;20646;-62
2022/05/25 10:08:15;;;;;;;2.37;0.53;;;13.40;99.90;;;;;;4992383;28;20270;-63
2022/05/25 10:11:00;;;;;;;4.17;0.70;;;13.40;99.90;;;;;;4992167;28;20218;-64
2022/05/25 10:13:37;;;;;;;4.00;1.08;;;13.60;99.90;;;;;;4992421;28;20212;-64
2022/05/25 10:16:20;;;;;;;4.50;1.00;;;13.80;99.90;;;;;;4992118;28;20171;-63
2022/05/25 10:18:46;;;;;;;8.13;0.80;;;13.80;99.90;;;;;;4992128;28;20594;-64
2022/05/25 10:21:46;;;;;;;4.83;0.90;;;13.80;99.90;;;;;;4992014;28;20223;-64
2022/05/25 10:24:28;;;;;;;3.50;0.88;;;13.90;99.90;;;;;;4981260;28;20626;-63
2022/05/25 10:27:00;;;;;;;2.10;0.83;;;14.10;99.90;;;;;;4992173;28;20261;-64
2022/05/25 10:38:27;;;;;;;9.63;1.60;;;14.10;99.90;;;;;;4989919;28;20731;-63
2022/05/25 10:40:54;;;;;;;13.70;1.75;;;14.00;99.90;;;;;;4989840;28;20183;-64
2022/05/25 10:43:26;;;;;;;13.65;1.95;;;14.10;99.90;;;;;;4989939;28;20175;-64
2022/05/25 10:45:54;;;;;;;13.50;1.80;;;14.10;99.90;;;;;;4989790;28;20194;-64
2022/05/25 10:48:23;;;;;;;12.45;2.35;;;14.30;99.90;;;;;;4989914;28;20634;-64
2022/05/25 10:51:02;;;;;;;12.77;1.63;;;14.40;99.90;;;;;;4991606;28;20179;-63
2022/05/25 10:56:50;;;;;;;15.40;2.10;;;14.40;99.90;;;;;;4991966;28;20191;-64
2022/05/25 10:59:55;;;;;;;16.60;2.20;;;14.40;99.90;;;;;;4991604;28;20203;-64
2022/05/25 11:02:26;;;;;;;13.43;1.88;;;14.50;99.90;;;;;;4961750;28;20262;-64
2022/05/25 11:05:22;;;;;;;14.20;2.53;;;14.50;99.90;;;;;;4991612;28;20187;-64
2022/05/25 11:07:53;;;;;;;13.43;2.67;;;14.60;99.90;;;;;;4991880;28;20167;-64
2022/05/25 11:10:33;;;;;;;17.85;2.53;;;14.70;99.90;;;;;;4991658;28;20171;-62
2022/05/25 11:13:23;;;;;;;18.67;3.00;;;14.70;99.90;;;;;;4991562;28;20232;-64
2022/05/25 11:16:29;;;;;;;21.58;3.90;;;14.70;99.90;;;;;;4990227;28;20187;-63
2022/05/25 11:19:37;;;;;;;20.98;2.60;;;14.90;99.90;;;;;;4991431;28;20190;-63
2022/05/25 11:22:29;;;;;;;20.63;3.10;;;15.00;99.90;;;;;;4958444;28;20353;-63
2022/05/25 11:25:22;;;;;;;14.90;2.40;;;15.20;99.90;;;;;;4991492;28;20228;-63
2022/05/25 11:28:01;;;;;;;24.30;3.13;;;15.30;99.90;;;;;;4991430;28;20273;-63
2022/05/25 11:30:32;;;;;;;18.08;2.58;;;15.50;99.90;;;;;;4991487;28;20761;-63
2022/05/25 11:33:12;;;;;;;17.75;2.70;;;15.70;99.90;;;;;;4991360;28;20175;-63
2022/05/25 11:36:05;;;;;;;23.45;3.53;;;15.90;99.90;;;;;;4991472;28;20190;-63
2022/05/25 11:38:32;;;;;;;17.55;2.58;;;16.00;99.90;;;;;;4991077;28;20207;-64
2022/05/25 11:41:16;;;;;;;16.60;2.88;;;15.90;99.90;;;;;;4991533;28;20183;-63
2022/05/25 11:44:09;;;;;;;17.13;3.00;;;15.90;99.90;;;;;;4991202;28;20167;-63
2022/05/25 11:46:45;;;;;;;22.58;2.95;;;15.80;99.90;;;;;;4991131;28;20204;-63
2022/05/25 11:49:25;;;;;;;16.83;2.90;;;15.70;99.90;;;;;;4991253;28;20175;-63
2022/05/25 11:52:23;;;;;;;16.17;3.47;;;15.60;99.90;;;;;;4991075;28;20657;-62
2022/05/25 11:55:18;;;;;;;27.48;4.35;;;15.40;99.90;;;;;;4958111;28;20246;-63
2022/05/25 11:58:03;;;;;;;23.67;4.70;;;15.40;99.90;;;;;;4991065;28;20186;-63
2022/05/25 12:00:35;;;;;;;17.05;3.42;;;15.40;99.90;;;;;;4994482;28;20202;-63
2022/05/25 12:03:37;;;;;;;15.88;3.13;;;15.60;99.90;;;;;;4994699;28;20179;-63
2022/05/25 12:06:15;;;;;;;12.52;2.40;;;16.00;99.90;;;;;;4994787;28;20175;-62
2022/05/25 12:09:01;;;;;;;17.95;3.10;;;15.90;99.90;;;;;;4994921;28;20228;-63
2022/05/25 12:11:49;;;;;;;15.93;2.75;;;16.20;99.90;;;;;;4993332;28;20545;-63
2022/05/25 12:14:18;;;;;;;24.35;3.85;;;16.70;99.90;;;;;;4994590;28;20213;-63
2022/05/25 12:16:46;;;;;;;17.45;3.08;;;17.00;99.90;;;;;;4994561;28;20175;-63
2022/05/25 12:19:18;;;;;;;20.83;3.40;;;17.20;99.90;;;;;;4994549;28;20187;-60
2022/05/25 12:21:55;;;;;;;21.45;3.95;;;17.10;99.90;;;;;;4994248;28;20237;-60
2022/05/25 12:24:43;;;;;;;23.17;4.13;;;17.10;99.90;;;;;;4994226;28;20189;-61
2022/05/25 12:27:14;;;;;;;22.48;3.58;;;17.10;99.90;;;;;;4994226;28;20167;-61
2022/05/25 12:29:44;;;;;;;24.25;3.60;;;16.80;99.90;;;;;;4994272;28;20173;-61
2022/05/25 12:32:11;;;;;;;16.50;3.45;;;16.80;99.90;;;;;;4994275;28;20206;-61
2022/05/25 12:34:46;;;;;;;19.30;3.28;;;16.90;99.90;;;;;;4994039;28;20226;-61
2022/05/25 12:37:17;;;;;;;21.20;3.72;;;16.80;99.90;;;;;;4994055;28;20259;-62
2022/05/25 12:39:42;;;;;;;19.50;3.47;;;17.00;99.90;;;;;;4994184;28;20258;-62
2022/05/25 12:42:23;;;;;;;19.33;3.60;;;17.00;99.90;;;;;;4993813;28;20650;-62
2022/05/25 12:50:47;;;;;;;24.48;3.80;;;17.10;99.90;;;;;;4994031;28;20255;-62
2022/05/25 12:53:39;;;;;;;22.52;3.55;;;16.90;99.90;;;;;;4993810;28;20176;-62
2022/05/25 12:56:15;;;;;;;14.95;2.97;;;17.20;99.90;;;;;;4967397;28;20190;-62
2022/05/25 12:58:55;;;;;;;23.92;3.85;;;17.40;99.90;;;;;;4993697;28;20178;-62
2022/05/25 13:01:27;;;;;;;32.05;3.80;;;17.60;99.90;;;;;;4993511;28;20249;-62
2022/05/25 13:03:56;;;;;;;18.63;3.53;;;18.20;99.90;;;;;;4993566;28;20167;-62
2022/05/25 13:06:37;;;;;;;19.35;3.60;;;18.60;99.90;;;;;;4993758;28;20250;-62
2022/05/25 13:09:10;;;;;;;20.42;3.10;;;18.70;99.90;;;;;;4993244;28;20180;-62
2022/05/25 13:11:40;;;;;;;23.52;3.60;;;18.30;99.90;;;;;;4993270;28;20171;-62
2022/05/25 13:14:18;;;;;;;14.82;2.63;;;18.00;99.90;;;;;;4993382;28;20262;-62
2022/05/25 13:16:45;;;;;;;17.35;3.05;;;18.00;99.90;;;;;;4993626;28;20181;-62
2022/05/25 13:19:15;;;;;;;16.23;2.80;;;18.70;99.90;;;;;;4993148;28;20644;-62
2022/05/25 13:21:44;;;;;;;9.85;2.15;;;18.70;99.90;;;;;;4993189;28;20230;-62
2022/05/25 13:24:41;;;;;;;9.20;2.08;;;19.00;99.90;;;;;;4993022;28;20642;-61
2022/05/25 13:27:16;;;;;;;15.45;2.67;;;19.50;99.90;;;;;;4959860;28;20187;-62
2022/05/25 13:30:09;;;;;;;10.13;1.73;;;19.80;99.90;;;;;;4993104;28;20261;-61
2022/05/25 13:32:50;;;;;;;8.43;1.52;;;20.00;99.90;;;;;;4992832;28;20194;-62
2022/05/25 13:35:21;;;;;;;12.35;2.20;;;19.40;99.90;;;;;;4992573;28;20272;-61
2022/05/25 13:38:14;;;;;;;12.40;1.83;;;19.10;99.90;;;;;;4992790;28;20179;-65
2022/05/25 13:40:49;;;;;;;12.38;2.50;;;18.70;99.90;;;;;;4992729;28;20646;-63